Main page
METAR-TAF:

METAR-TAF

Airports :

London Biggin Hill Airport

London Biggin Hill, England

latitude: 51-19N, longitude: 000-02E, elevation: 183 m

Current weather observation

The report was made 32 minutes ago, at 17:50 UTC
Wind 8 kt from the West/Southwest, varying between South/Southwest and West
Temperature 7°C
Humidity 93%
Pressure 1023 hPa
Visibility 10 km or more
Scattered clouds at a height of 1000 ft

METAR: EGKB 291750Z 24008KT 200V280 9999 SCT010 07/06 Q1023

Time: 18:22 (18:22 UTC)

Forecast

The report was made 1 hour and 24 minutes ago, at 16:58 UTC
Forecast valid from 29 at 18 UTC to 29 at 22 UTC
Wind 11 kt from the West/Southwest
Visibility 10 km or more
Scattered clouds at a height of 1800 ft
Probability 30% :
Temporary
from 29 at 18 UTC to 29 at 19 UTC
Broken clouds at a height of 1200 ft

TAF: EGKB 291658Z 2918/2922 25011KT 9999 SCT018 PROB30 TEMPO 2918/2919 BKN012

Weather observations and forecasts of more than 4000 airports (METAR and TAF reports).

The available stations are represented by yellow and red dots on the map.

Hover mouse over dot to see the name of the station.

Then click to see weather observations and forecasts.

To change the map : click on the green buttons with a black cross to zoom in, on the green button with a dash to zoom out, or on the green arrows for adjacent maps.


METAR-TAF: